Terminal Aerodrome Forecast
Issued by NWS

Home | Current Version | Previous Version | Text Only | Print | Product List | Glossary On
Versions: 1 2 3 4 5 6 7 8 9 10 11 12 13
000
FTUS43 KLSX 031100
TAFCPS
TAF
KCPS 031120Z 0312/0412 15004KT P6SM BKN100 WS010/17025KT
     FM031400 19009KT P6SM SCT100
     FM031800 19010G20KT P6SM SCT250
     FM040100 17007KT P6SM BKN250=

USA.gov is the U.S. government's official web portal to all federal, state and local government web resources and services.